Iwanui, Waitara Historical Data
Daily Summary for February 16, 2018 Units:  Metric    English   Both
« Previous Day
Next Day »
Daily Weekly Monthly Yearly Custom
  High: Low: Average:
Temperature: 27.3 °C 15.2 °C 20.9 °C
Dew Point: 19.9 °C 14.2 °C 17.1 °C
Humidity: 97% 57% 81%
Wind Speed: 13.4km/h 0.0km/h 3.2km/h
Wind Gust: 19.5km/h - -
Wind- - WSW
Pressure: 1017.5 hPa 1015.5 hPa -
Precipitation: 0.0 mm    
Historical Graphs
 
 
Tabular Data for February 16, 2018
Time Temperature Dew Point Pressure Wind Wind Speed Wind Gust Humidity Rainfall Rate (Hourly)
00:02 17.9 °C 16.1 °C 1016.5 hPa Calm     89% 0.0 mm
00:07 17.8 °C 16.0 °C 1016.5 hPa Calm     89% 0.0 mm
00:12 17.7 °C 15.9 °C 1016.5 hPa Calm     89% 0.0 mm
00:17 17.7 °C 15.9 °C 1016.5 hPa Calm     89% 0.0 mm
00:22 17.6 °C 15.9 °C 1016.5 hPa Calm     90% 0.0 mm
00:27 17.6 °C 15.9 °C 1016.5 hPa Calm     90% 0.0 mm
00:33 17.6 °C 15.9 °C 1016.5 hPa Calm     90% 0.0 mm
00:38 17.5 °C 15.8 °C 1016.8 hPa Calm     90% 0.0 mm
00:43 17.4 °C 15.8 °C 1016.5 hPa Calm     90% 0.0 mm
00:48 17.3 °C 15.7 °C 1016.5 hPa Calm     90% 0.0 mm
00:53 17.2 °C 15.6 °C 1016.8 hPa Calm     90% 0.0 mm
00:58 17.0 °C 15.3 °C 1016.8 hPa Calm     90% 0.0 mm
01:03 16.9 °C 15.4 °C 1016.8 hPa Calm     91% 0.0 mm
01:08 16.8 °C 15.3 °C 1016.8 hPa Calm     91% 0.0 mm
01:13 16.8 °C 15.3 °C 1016.8 hPa Calm     91% 0.0 mm
01:18 16.7 °C 15.2 °C 1016.8 hPa Calm   2.6 km/h 91% 0.0 mm
01:23 16.6 °C 15.1 °C 1016.8 hPa Calm   2.6 km/h 91% 0.0 mm
01:28 16.6 °C 15.1 °C 1016.8 hPa Calm   2.6 km/h 91% 0.0 mm
01:33 16.5 °C 15.1 °C 1016.8 hPa Calm     91% 0.0 mm
01:38 16.6 °C 15.1 °C 1016.8 hPa Calm     91% 0.0 mm
01:43 16.6 °C 15.3 °C 1016.8 hPa Calm     92% 0.0 mm
01:48 16.6 °C 15.3 °C 1016.8 hPa Calm     92% 0.0 mm
01:53 16.7 °C 15.4 °C 1016.8 hPa Calm     92% 0.0 mm
01:58 16.7 °C 15.4 °C 1016.8 hPa Calm     92% 0.0 mm
02:03 16.7 °C 15.4 °C 1016.8 hPa Calm     92% 0.0 mm
02:08 16.6 °C 15.3 °C 1016.5 hPa Calm     92% 0.0 mm
02:13 16.5 °C 15.2 °C 1016.5 hPa Calm     92% 0.0 mm
02:18 16.4 °C 15.1 °C 1016.5 hPa South 1.1 km/h 2.6 km/h 92% 0.0 mm
02:23 16.4 °C 15.1 °C 1016.5 hPa Calm   2.6 km/h 92% 0.0 mm
02:28 16.3 °C 15.0 °C 1016.5 hPa Calm   2.6 km/h 92% 0.0 mm
02:33 16.0 °C 14.7 °C 1016.5 hPa Calm   2.6 km/h 92% 0.0 mm
02:38 15.9 °C 14.8 °C 1016.5 hPa Calm   1.1 km/h 93% 0.0 mm
02:43 15.8 °C 14.7 °C 1016.5 hPa Calm   1.1 km/h 93% 0.0 mm
02:48 15.8 °C 14.7 °C 1016.5 hPa Calm   2.6 km/h 93% 0.0 mm
02:53 15.8 °C 14.7 °C 1016.5 hPa Calm   3.5 km/h 93% 0.0 mm
02:59 15.9 °C 14.9 °C 1016.5 hPa ESE 1.1 km/h 3.5 km/h 94% 0.0 mm
03:04 15.9 °C 14.9 °C 1016.5 hPa Calm   2.6 km/h 94% 0.0 mm
03:09 15.8 °C 14.8 °C 1016.5 hPa Calm   2.6 km/h 94% 0.0 mm
03:13 15.8 °C 14.8 °C 1016.5 hPa East 2.6 km/h 5.0 km/h 94% 0.0 mm
03:19 15.8 °C 14.8 °C 1016.1 hPa Calm   5.0 km/h 94% 0.0 mm
03:24 15.8 °C 14.8 °C 1016.1 hPa Calm   5.0 km/h 94% 0.0 mm
03:29 15.8 °C 14.8 °C 1016.1 hPa Calm   1.1 km/h 94% 0.0 mm
03:34 15.8 °C 14.8 °C 1016.1 hPa Calm   1.1 km/h 94% 0.0 mm
03:39 15.8 °C 14.8 °C 1016.5 hPa Calm   1.1 km/h 94% 0.0 mm
03:44 15.8 °C 14.8 °C 1016.1 hPa Calm   1.1 km/h 94% 0.0 mm
03:49 15.3 °C 14.3 °C 1016.1 hPa Calm   1.1 km/h 94% 0.0 mm
03:54 15.2 °C 14.2 °C 1016.1 hPa ESE 1.1 km/h 3.5 km/h 94% 0.0 mm
03:59 15.2 °C 14.2 °C 1016.1 hPa ESE 1.1 km/h 3.5 km/h 94% 0.0 mm
04:04 15.2 °C 14.2 °C 1016.1 hPa Calm   3.5 km/h 94% 0.0 mm
04:09 15.7 °C 14.7 °C 1016.1 hPa SE 1.1 km/h 3.5 km/h 94% 0.0 mm
04:14 15.7 °C 14.7 °C 1016.1 hPa SE 1.1 km/h 3.5 km/h 94% 0.0 mm
04:19 15.7 °C 14.7 °C 1016.1 hPa Calm   3.5 km/h 94% 0.0 mm
04:24 15.7 °C 14.7 °C 1016.1 hPa SE 1.1 km/h 2.6 km/h 94% 0.0 mm
04:29 15.7 °C 14.7 °C 1016.1 hPa SE 1.1 km/h 2.6 km/h 94% 0.0 mm
04:34 15.7 °C 14.9 °C 1015.8 hPa Calm   2.6 km/h 95% 0.0 mm
04:39 15.7 °C 14.9 °C 1015.8 hPa Calm   2.6 km/h 95% 0.0 mm
04:44 15.7 °C 14.9 °C 1015.8 hPa Calm   3.5 km/h 95% 0.0 mm
04:49 15.7 °C 14.9 °C 1015.8 hPa Calm   3.5 km/h 95% 0.0 mm
04:54 15.7 °C 14.9 °C 1015.8 hPa Calm   2.6 km/h 95% 0.0 mm
04:59 15.7 °C 14.9 °C 1015.8 hPa Calm   2.6 km/h 95% 0.0 mm
05:04 15.7 °C 14.9 °C 1015.8 hPa Calm   2.6 km/h 95% 0.0 mm
05:09 15.2 °C 14.4 °C 1015.8 hPa Calm   2.6 km/h 95% 0.0 mm
05:14 15.2 °C 14.4 °C 1015.5 hPa East 2.6 km/h 3.5 km/h 95% 0.0 mm
05:20 15.7 °C 14.9 °C 1015.5 hPa Calm   3.5 km/h 95% 0.0 mm
05:25 15.7 °C 14.9 °C 1015.5 hPa Calm   3.5 km/h 95% 0.0 mm
05:30 15.7 °C 14.9 °C 1015.5 hPa Calm   2.6 km/h 95% 0.0 mm
05:35 15.7 °C 14.9 °C 1015.8 hPa Calm   2.6 km/h 95% 0.0 mm
05:40 15.7 °C 14.9 °C 1015.5 hPa SE 1.1 km/h 2.6 km/h 95% 0.0 mm
05:45 15.7 °C 14.9 °C 1015.5 hPa ESE 1.1 km/h 3.5 km/h 95% 0.0 mm
05:50 15.7 °C 15.1 °C 1015.5 hPa East 1.1 km/h 5.0 km/h 96% 0.0 mm
05:55 15.7 °C 15.1 °C 1015.5 hPa East 1.1 km/h 5.0 km/h 96% 0.0 mm
06:00 15.8 °C 15.2 °C 1015.5 hPa East 2.6 km/h 6.1 km/h 96% 0.0 mm
06:05 15.9 °C 15.3 °C 1015.8 hPa Calm   6.1 km/h 96% 0.0 mm
06:10 16.0 °C 15.2 °C 1015.8 hPa ESE 1.1 km/h 5.0 km/h 95% 0.0 mm
06:16 16.0 °C 15.2 °C 1015.8 hPa Calm   2.6 km/h 95% 0.0 mm
06:21 16.0 °C 15.2 °C 1015.8 hPa Calm   2.6 km/h 95% 0.0 mm
06:26 16.2 °C 15.4 °C 1015.8 hPa Calm   2.6 km/h 95% 0.0 mm
06:31 16.3 °C 15.5 °C 1015.8 hPa Calm   2.6 km/h 95% 0.0 mm
06:36 16.3 °C 15.5 °C 1015.8 hPa Calm   1.1 km/h 95% 0.0 mm
06:41 16.4 °C 15.6 °C 1015.8 hPa East 1.1 km/h 3.5 km/h 95% 0.0 mm
06:46 16.4 °C 15.6 °C 1015.8 hPa East 1.1 km/h 3.5 km/h 95% 0.0 mm
06:51 16.6 °C 15.9 °C 1016.1 hPa East 1.1 km/h 3.5 km/h 96% 0.0 mm
06:56 16.7 °C 16.1 °C 1016.1 hPa East 1.1 km/h 3.5 km/h 96% 0.0 mm
07:01 16.9 °C 16.3 °C 1016.1 hPa East 1.1 km/h 5.0 km/h 96% 0.0 mm
07:06 17.0 °C 16.2 °C 1016.1 hPa East 3.5 km/h 6.1 km/h 95% 0.0 mm
07:11 17.2 °C 16.4 °C 1016.1 hPa East 1.1 km/h 6.1 km/h 95% 0.0 mm
07:20 17.6 °C 16.8 °C 1016.1 hPa Calm   1.1 km/h 95% 0.0 mm
07:25 17.8 °C 17.0 °C 1016.1 hPa Calm   2.6 km/h 95% 0.0 mm
07:30 18.0 °C 17.4 °C 1016.1 hPa East 1.1 km/h 2.6 km/h 96% 0.0 mm
07:35 18.2 °C 17.6 °C 1016.1 hPa ENE 1.1 km/h 3.5 km/h 96% 0.0 mm
07:40 18.3 °C 17.8 °C 1016.1 hPa ENE 1.1 km/h 5.0 km/h 97% 0.0 mm
07:45 18.4 °C 17.8 °C 1016.1 hPa ENE 3.5 km/h 6.1 km/h 96% 0.0 mm
07:50 18.5 °C 17.9 °C 1016.5 hPa NE 2.6 km/h 6.1 km/h 96% 0.0 mm
07:55 18.6 °C 17.9 °C 1016.5 hPa Calm   6.1 km/h 96% 0.0 mm
08:00 18.8 °C 18.2 °C 1016.5 hPa NE 1.1 km/h 5.0 km/h 96% 0.0 mm
08:05 19.0 °C 18.2 °C 1016.5 hPa ENE 2.6 km/h 5.0 km/h 95% 0.0 mm
08:10 19.1 °C 18.3 °C 1016.5 hPa East 1.1 km/h 5.0 km/h 95% 0.0 mm
08:15 19.3 °C 18.5 °C 1016.5 hPa Calm   5.0 km/h 95% 0.0 mm
08:20 19.4 °C 18.6 °C 1016.8 hPa ENE 5.0 km/h 6.1 km/h 95% 0.0 mm
08:25 19.4 °C 18.6 °C 1016.8 hPa Calm   6.1 km/h 95% 0.0 mm
08:30 19.5 °C 18.7 °C 1016.8 hPa Calm   5.0 km/h 95% 0.0 mm
08:35 19.5 °C 18.7 °C 1016.8 hPa ENE 2.6 km/h 6.1 km/h 95% 0.0 mm
08:41 19.5 °C 18.5 °C 1016.8 hPa ENE 3.5 km/h 7.2 km/h 94% 0.0 mm
08:46 19.7 °C 18.7 °C 1016.8 hPa East 1.1 km/h 7.2 km/h 94% 0.0 mm
08:51 20.0 °C 18.8 °C 1016.8 hPa ENE 1.1 km/h 5.0 km/h 93% 0.0 mm
08:56 20.3 °C 19.2 °C 1016.8 hPa Calm   6.1 km/h 93% 0.0 mm
09:01 20.4 °C 19.1 °C 1016.8 hPa East 2.6 km/h 6.1 km/h 92% 0.0 mm
09:06 20.5 °C 19.2 °C 1016.8 hPa ENE 2.6 km/h 6.1 km/h 92% 0.0 mm
09:11 20.6 °C 19.1 °C 1016.8 hPa Calm   6.1 km/h 91% 0.0 mm
09:16 20.7 °C 19.2 °C 1016.8 hPa East 1.1 km/h 6.1 km/h 91% 0.0 mm
09:21 20.7 °C 19.2 °C 1016.8 hPa ENE 1.1 km/h 5.0 km/h 91% 0.0 mm
09:26 20.9 °C 19.2 °C 1016.8 hPa NE 3.5 km/h 5.0 km/h 90% 0.0 mm
09:31 21.1 °C 19.2 °C 1016.8 hPa NE 1.1 km/h 5.0 km/h 89% 0.0 mm
09:36 21.5 °C 19.4 °C 1016.8 hPa North 3.5 km/h 6.1 km/h 88% 0.0 mm
09:41 21.8 °C 19.4 °C 1017.2 hPa NW 3.5 km/h 6.1 km/h 86% 0.0 mm
09:46 21.9 °C 18.9 °C 1017.2 hPa NNW 7.2 km/h 11.1 km/h 83% 0.0 mm
09:51 22.1 °C 18.3 °C 1017.2 hPa NNW 3.5 km/h 11.1 km/h 79% 0.0 mm
09:56 22.2 °C 18.2 °C 1017.2 hPa NNW 6.1 km/h 11.1 km/h 78% 0.0 mm
10:01 22.3 °C 18.3 °C 1017.2 hPa NNW 6.1 km/h 11.1 km/h 78% 0.0 mm
10:06 22.5 °C 18.3 °C 1017.2 hPa NNW 7.2 km/h 9.7 km/h 77% 0.0 mm
10:11 22.5 °C 18.1 °C 1017.2 hPa NNW 5.0 km/h 11.1 km/h 76% 0.0 mm
10:16 22.6 °C 17.9 °C 1017.2 hPa NNW 8.7 km/h 12.2 km/h 75% 0.0 mm
10:21 22.7 °C 18.1 °C 1017.2 hPa NNW 8.7 km/h 12.2 km/h 75% 0.0 mm
10:26 22.7 °C 17.8 °C 1017.2 hPa North 6.1 km/h 11.1 km/h 74% 0.0 mm
10:31 22.9 °C 18.3 °C 1017.2 hPa North 3.5 km/h 11.1 km/h 75% 0.0 mm
10:36 23.2 °C 18.6 °C 1017.2 hPa NNW 7.2 km/h 11.1 km/h 75% 0.0 mm
10:41 23.1 °C 18.2 °C 1017.2 hPa NNW 5.0 km/h 13.4 km/h 74% 0.0 mm
10:46 23.3 °C 18.7 °C 1017.2 hPa North 3.5 km/h 13.4 km/h 75% 0.0 mm
10:51 23.6 °C 18.7 °C 1017.2 hPa North 6.1 km/h 13.4 km/h 74% 0.0 mm
10:56 23.3 °C 18.8 °C 1017.2 hPa North 6.1 km/h 13.4 km/h 76% 0.0 mm
11:01 23.0 °C 19.0 °C 1017.2 hPa NNE 9.7 km/h 15.8 km/h 78% 0.0 mm
11:06 23.1 °C 19.3 °C 1017.2 hPa NNE 7.2 km/h 15.8 km/h 79% 0.0 mm
11:11 23.3 °C 19.5 °C 1017.2 hPa North 7.2 km/h 14.8 km/h 79% 0.0 mm
11:16 24.1 °C 19.8 °C 1017.5 hPa North 7.2 km/h 13.4 km/h 77% 0.0 mm
11:21 24.6 °C 19.9 °C 1017.5 hPa North 9.7 km/h 17.2 km/h 75% 0.0 mm
11:26 24.3 °C 19.4 °C 1017.5 hPa NNE 6.1 km/h 17.2 km/h 74% 0.0 mm
11:31 24.0 °C 19.1 °C 1017.5 hPa North 9.7 km/h 17.2 km/h 74% 0.0 mm
11:36 23.8 °C 19.3 °C 1017.5 hPa NNE 9.7 km/h 14.8 km/h 76% 0.0 mm
11:41 23.7 °C 19.4 °C 1017.5 hPa NE 7.2 km/h 14.8 km/h 77% 0.0 mm
11:46 23.7 °C 19.2 °C 1017.5 hPa NE 5.0 km/h 15.8 km/h 76% 0.0 mm
11:51 24.4 °C 19.9 °C 1017.5 hPa NNE 8.7 km/h 15.8 km/h 76% 0.0 mm
11:56 25.0 °C 19.6 °C 1017.5 hPa North 6.1 km/h 14.8 km/h 72% 0.0 mm
12:01 25.1 °C 19.7 °C 1017.5 hPa North 6.1 km/h 15.8 km/h 72% 0.0 mm
12:06 25.3 °C 19.4 °C 1017.5 hPa North 6.1 km/h 15.8 km/h 70% 0.0 mm
12:12 25.2 °C 18.4 °C 1017.5 hPa NNW 5.0 km/h 14.8 km/h 66% 0.0 mm
12:16 25.4 °C 18.4 °C 1017.5 hPa North 8.7 km/h 14.8 km/h 65% 0.0 mm
12:22 25.7 °C 18.7 °C 1017.5 hPa North 8.7 km/h 15.8 km/h 65% 0.0 mm
12:27 25.8 °C 18.2 °C 1017.5 hPa NNW 7.2 km/h 17.2 km/h 63% 0.0 mm
12:32 25.8 °C 18.2 °C 1017.5 hPa NNW 9.7 km/h 17.2 km/h 63% 0.0 mm
12:37 25.8 °C 18.2 °C 1017.5 hPa NW 5.0 km/h 17.2 km/h 63% 0.0 mm
12:42 25.8 °C 19.0 °C 1017.5 hPa NW 13.4 km/h 17.2 km/h 66% 0.0 mm
12:47 25.8 °C 18.5 °C 1017.5 hPa North 6.1 km/h 15.8 km/h 64% 0.0 mm
12:52 25.8 °C 18.2 °C 1017.5 hPa North 8.7 km/h 15.8 km/h 63% 0.0 mm
12:57 25.8 °C 18.0 °C 1017.5 hPa North 8.7 km/h 14.8 km/h 62% 0.0 mm
13:02 25.4 °C 18.1 °C 1017.5 hPa NNW 8.7 km/h 15.8 km/h 64% 0.0 mm
13:07 25.6 °C 18.6 °C 1017.5 hPa North 5.0 km/h 17.2 km/h 65% 0.0 mm
13:12 25.7 °C 18.4 °C 1017.5 hPa North 7.2 km/h 17.2 km/h 64% 0.0 mm
13:17 25.8 °C 18.2 °C 1017.5 hPa NNW 7.2 km/h 14.8 km/h 63% 0.0 mm
13:22 25.5 °C 18.2 °C 1017.5 hPa NNW 7.2 km/h 18.3 km/h 64% 0.0 mm
13:27 25.6 °C 18.3 °C 1017.2 hPa NNW 12.2 km/h 18.3 km/h 64% 0.0 mm
13:32 25.5 °C 18.4 °C 1017.2 hPa NNW 7.2 km/h 18.3 km/h 65% 0.0 mm
13:37 25.7 °C 18.4 °C 1017.2 hPa North 11.1 km/h 17.2 km/h 64% 0.0 mm
13:42 25.7 °C 18.4 °C 1017.2 hPa North 6.1 km/h 17.2 km/h 64% 0.0 mm
13:47 25.7 °C 18.2 °C 1017.2 hPa NNW 7.2 km/h 18.3 km/h 63% 0.0 mm
13:52 25.8 °C 18.7 °C 1017.2 hPa NNW 9.7 km/h 18.3 km/h 65% 0.0 mm
13:57 26.6 °C 18.5 °C 1017.2 hPa NNW 9.7 km/h 17.2 km/h 61% 0.0 mm
14:02 26.6 °C 19.0 °C 1017.5 hPa NNW 9.7 km/h 17.2 km/h 63% 0.0 mm
14:07 26.6 °C 18.2 °C 1017.2 hPa NNW 9.7 km/h 17.2 km/h 60% 0.0 mm
14:12 25.8 °C 18.2 °C 1017.2 hPa NNW 7.2 km/h 18.3 km/h 63% 0.0 mm
14:17 25.7 °C 17.9 °C 1017.2 hPa NNW 7.2 km/h 18.3 km/h 62% 0.0 mm
14:22 26.6 °C 18.7 °C 1017.2 hPa NNW 5.0 km/h 17.2 km/h 62% 0.0 mm
14:27 26.6 °C 18.5 °C 1017.5 hPa NNW 7.2 km/h 17.2 km/h 61% 0.0 mm
14:32 26.6 °C 18.7 °C 1017.2 hPa NNW 11.1 km/h 17.2 km/h 62% 0.0 mm
14:37 25.8 °C 18.2 °C 1017.2 hPa NNW 7.2 km/h 18.3 km/h 63% 0.0 mm
14:42 25.7 °C 18.4 °C 1017.2 hPa NNW 11.1 km/h 18.3 km/h 64% 0.0 mm
14:47 25.7 °C 17.9 °C 1017.2 hPa NNW 7.2 km/h 17.2 km/h 62% 0.0 mm
14:52 25.6 °C 18.1 °C 1017.2 hPa North 6.1 km/h 17.2 km/h 63% 0.0 mm
14:57 26.6 °C 19.0 °C 1017.2 hPa NW 2.6 km/h 18.3 km/h 63% 0.0 mm
15:02 25.7 °C 17.9 °C 1017.2 hPa NW 7.2 km/h 18.3 km/h 62% 0.0 mm
15:07 25.7 °C 18.4 °C 1016.8 hPa NNW 7.2 km/h 17.2 km/h 64% 0.0 mm
15:12 26.9 °C 18.5 °C 1017.2 hPa NNW 12.2 km/h 19.5 km/h 60% 0.0 mm
15:17 25.8 °C 18.0 °C 1016.8 hPa NNW 8.7 km/h 19.5 km/h 62% 0.0 mm
15:22 25.7 °C 17.9 °C 1017.2 hPa NNW 7.2 km/h 18.3 km/h 62% 0.0 mm
15:27 25.6 °C 18.6 °C 1016.8 hPa NW 5.0 km/h 18.3 km/h 65% 0.0 mm
15:32 26.6 °C 18.5 °C 1016.8 hPa WNW 11.1 km/h 17.2 km/h 61% 0.0 mm
15:33 26.6 °C 18.5 °C 1016.8 hPa WNW 9.7 km/h 17.2 km/h 61% 0.0 mm
15:38 26.6 °C 18.2 °C 1016.8 hPa NW 7.2 km/h 15.8 km/h 60% 0.0 mm
15:43 26.6 °C 18.2 °C 1016.8 hPa NW 8.7 km/h 15.8 km/h 60% 0.0 mm
15:48 26.6 °C 18.2 °C 1016.8 hPa NW 3.5 km/h 18.3 km/h 60% 0.0 mm
15:53 26.6 °C 17.9 °C 1016.8 hPa WNW 7.2 km/h 18.3 km/h 59% 0.0 mm
15:58 26.8 °C 18.4 °C 1016.5 hPa NW 11.1 km/h 14.8 km/h 60% 0.0 mm
16:03 26.7 °C 18.3 °C 1016.5 hPa NNW 6.1 km/h 18.3 km/h 60% 0.0 mm
16:08 25.8 °C 18.2 °C 1016.5 hPa NNW 6.1 km/h 18.3 km/h 63% 0.0 mm
16:13 26.6 °C 18.7 °C 1016.5 hPa NW 7.2 km/h 18.3 km/h 62% 0.0 mm
16:18 26.6 °C 18.5 °C 1016.5 hPa NW 5.0 km/h 13.4 km/h 61% 0.0 mm
16:23 25.7 °C 18.2 °C 1016.5 hPa NNW 8.7 km/h 14.8 km/h 63% 0.0 mm
16:28 26.6 °C 18.7 °C 1016.5 hPa NW 6.1 km/h 14.8 km/h 62% 0.0 mm
16:33 27.3 °C 18.6 °C 1016.5 hPa NW 6.1 km/h 13.4 km/h 59% 0.0 mm
16:38 27.2 °C 17.9 °C 1016.5 hPa NNW 3.5 km/h 17.2 km/h 57% 0.0 mm
16:43 26.6 °C 18.2 °C 1016.1 hPa NW 9.7 km/h 18.3 km/h 60% 0.0 mm
16:48 26.6 °C 17.9 °C 1016.1 hPa NW 8.7 km/h 18.3 km/h 59% 0.0 mm
16:53 25.8 °C 18.0 °C 1016.5 hPa NW 6.1 km/h 17.2 km/h 62% 0.0 mm
16:58 25.8 °C 18.0 °C 1016.1 hPa NW 7.2 km/h 13.4 km/h 62% 0.0 mm
17:03 25.8 °C 18.2 °C 1016.5 hPa NW 8.7 km/h 13.4 km/h 63% 0.0 mm
17:08 26.6 °C 18.2 °C 1016.1 hPa NW 8.7 km/h 13.4 km/h 60% 0.0 mm
17:13 25.8 °C 17.7 °C 1016.1 hPa NW 5.0 km/h 17.2 km/h 61% 0.0 mm
17:18 25.8 °C 18.0 °C 1016.1 hPa NW 8.7 km/h 17.2 km/h 62% 0.0 mm
17:23 26.6 °C 18.2 °C 1016.1 hPa NW 5.0 km/h 13.4 km/h 60% 0.0 mm
17:28 25.7 °C 17.9 °C 1016.1 hPa NW 2.6 km/h 13.4 km/h 62% 0.0 mm
17:33 25.7 °C 17.9 °C 1016.1 hPa NNW 7.2 km/h 11.1 km/h 62% 0.0 mm
17:38 25.7 °C 17.6 °C 1016.1 hPa NW 6.1 km/h 13.4 km/h 61% 0.0 mm
17:43 26.6 °C 18.2 °C 1016.1 hPa WNW 8.7 km/h 13.4 km/h 60% 0.0 mm
17:48 26.6 °C 18.2 °C 1016.1 hPa NW 7.2 km/h 13.4 km/h 60% 0.0 mm
17:53 25.7 °C 18.2 °C 1016.1 hPa NW 7.2 km/h 15.8 km/h 63% 0.0 mm
17:58 25.7 °C 18.2 °C 1016.1 hPa NW 2.6 km/h 15.8 km/h 63% 0.0 mm
18:03 25.7 °C 17.9 °C 1016.1 hPa NW 6.1 km/h 13.4 km/h 62% 0.0 mm
18:08 25.7 °C 18.2 °C 1016.1 hPa NNW 6.1 km/h 11.1 km/h 63% 0.0 mm
18:13 25.7 °C 17.9 °C 1016.1 hPa NNW 3.5 km/h 11.1 km/h 62% 0.0 mm
18:19 25.7 °C 17.6 °C 1016.1 hPa NW 7.2 km/h 12.2 km/h 61% 0.0 mm
18:24 25.7 °C 17.6 °C 1016.1 hPa NW 5.0 km/h 13.4 km/h 61% 0.0 mm
18:29 25.7 °C 18.2 °C 1015.8 hPa NW 7.2 km/h 13.4 km/h 63% 0.0 mm
18:34 25.7 °C 18.2 °C 1016.1 hPa NW 3.5 km/h 11.1 km/h 63% 0.0 mm
18:39 25.7 °C 18.2 °C 1015.8 hPa WNW 6.1 km/h 11.1 km/h 63% 0.0 mm
18:44 25.5 °C 18.2 °C 1016.1 hPa NW 5.0 km/h 12.2 km/h 64% 0.0 mm
18:49 25.3 °C 18.3 °C 1015.8 hPa NW 3.5 km/h 12.2 km/h 65% 0.0 mm
18:54 25.1 °C 18.1 °C 1015.8 hPa NW 5.0 km/h 11.1 km/h 65% 0.0 mm
18:59 25.0 °C 18.4 °C 1016.1 hPa NW 7.2 km/h 9.7 km/h 67% 0.0 mm
19:04 25.0 °C 18.2 °C 1016.1 hPa NW 6.1 km/h 8.7 km/h 66% 0.0 mm
19:09 24.3 °C 18.3 °C 1016.1 hPa NW 3.5 km/h 9.7 km/h 69% 0.0 mm
19:14 24.7 °C 18.7 °C 1016.1 hPa WNW 5.0 km/h 9.7 km/h 69% 0.0 mm
19:19 24.7 °C 18.7 °C 1016.1 hPa WNW 5.0 km/h 9.7 km/h 69% 0.0 mm
19:24 25.1 °C 18.1 °C 1016.1 hPa NW 5.0 km/h 9.7 km/h 65% 0.0 mm
19:29 25.0 °C 18.2 °C 1016.1 hPa WNW 2.6 km/h 9.7 km/h 66% 0.0 mm
19:34 24.9 °C 18.6 °C 1016.1 hPa WNW 3.5 km/h 7.2 km/h 68% 0.0 mm
19:39 24.6 °C 18.8 °C 1016.1 hPa NW 3.5 km/h 7.2 km/h 70% 0.0 mm
19:44 24.6 °C 18.8 °C 1016.1 hPa NW 5.0 km/h 7.2 km/h 70% 0.0 mm
19:50 24.5 °C 18.7 °C 1016.1 hPa NW 3.5 km/h 8.7 km/h 70% 0.0 mm
19:54 24.2 °C 18.6 °C 1016.1 hPa NW 6.1 km/h 9.7 km/h 71% 0.0 mm
19:59 23.3 °C 18.2 °C 1016.1 hPa NW 1.1 km/h 9.7 km/h 73% 0.0 mm
20:05 23.0 °C 18.1 °C 1016.1 hPa Calm   6.1 km/h 74% 0.0 mm
20:10 22.5 °C 17.4 °C 1015.8 hPa WNW 1.1 km/h 6.1 km/h 73% 0.0 mm
20:15 22.1 °C 17.3 °C 1016.1 hPa West 1.1 km/h 3.5 km/h 74% 0.0 mm
20:20 21.7 °C 17.1 °C 1015.8 hPa Calm   2.6 km/h 75% 0.0 mm
20:25 21.4 °C 17.0 °C 1015.8 hPa West 1.1 km/h 3.5 km/h 76% 0.0 mm
20:30 21.1 °C 16.9 °C 1015.8 hPa Calm   3.5 km/h 77% 0.0 mm
20:35 20.9 °C 17.3 °C 1015.8 hPa West 1.1 km/h 2.6 km/h 80% 0.0 mm
20:40 20.7 °C 17.2 °C 1015.8 hPa Calm   2.6 km/h 80% 0.0 mm
20:45 20.5 °C 17.2 °C 1015.8 hPa Calm   2.6 km/h 81% 0.0 mm
20:50 20.4 °C 17.2 °C 1016.1 hPa Calm   1.1 km/h 82% 0.0 mm
20:55 20.3 °C 17.2 °C 1016.1 hPa Calm     82% 0.0 mm
21:00 20.1 °C 17.1 °C 1015.8 hPa Calm     83% 0.0 mm
21:05 19.9 °C 17.1 °C 1015.8 hPa Calm     84% 0.0 mm
21:10 19.6 °C 17.0 °C 1015.8 hPa Calm     85% 0.0 mm
21:15 19.5 °C 17.1 °C 1016.1 hPa Calm     86% 0.0 mm
21:22 19.2 °C 16.8 °C 1016.1 hPa Calm     86% 0.0 mm
21:27 18.9 °C 16.9 °C 1016.1 hPa Calm     88% 0.0 mm
21:32 18.8 °C 16.8 °C 1016.1 hPa Calm     88% 0.0 mm
21:37 18.6 °C 16.8 °C 1016.1 hPa Calm     89% 0.0 mm
21:42 18.5 °C 16.7 °C 1016.5 hPa Calm     89% 0.0 mm
21:47 18.4 °C 16.7 °C 1016.5 hPa Calm     90% 0.0 mm
21:52 18.2 °C 16.6 °C 1016.5 hPa Calm     90% 0.0 mm
21:57 18.1 °C 16.4 °C 1016.5 hPa Calm     90% 0.0 mm
22:03 18.0 °C 16.3 °C 1016.5 hPa Calm     90% 0.0 mm
22:08 17.9 °C 16.1 °C 1016.5 hPa Calm     89% 0.0 mm
22:13 17.9 °C 16.1 °C 1016.8 hPa Calm     89% 0.0 mm
22:18 17.8 °C 16.0 °C 1016.5 hPa Calm     89% 0.0 mm
22:23 17.7 °C 15.9 °C 1016.8 hPa Calm     89% 0.0 mm
22:28 17.6 °C 15.9 °C 1016.8 hPa Calm     90% 0.0 mm
22:33 17.5 °C 15.8 °C 1016.8 hPa Calm     90% 0.0 mm
22:38 17.5 °C 15.8 °C 1016.8 hPa Calm     90% 0.0 mm
22:43 17.6 °C 15.9 °C 1016.5 hPa Calm     90% 0.0 mm
22:48 17.4 °C 15.8 °C 1016.8 hPa Calm     90% 0.0 mm
22:53 17.4 °C 15.8 °C 1016.8 hPa Calm     90% 0.0 mm
22:58 17.3 °C 15.7 °C 1016.8 hPa Calm     90% 0.0 mm
23:03 17.2 °C 15.6 °C 1016.8 hPa Calm     90% 0.0 mm
23:08 17.1 °C 15.4 °C 1016.8 hPa Calm     90% 0.0 mm
23:13 17.0 °C 15.3 °C 1016.8 hPa Calm     90% 0.0 mm
23:18 17.0 °C 15.6 °C 1016.8 hPa Calm     91% 0.0 mm
23:23 16.9 °C 15.6 °C 1016.5 hPa Calm     92% 0.0 mm
23:28 16.8 °C 15.5 °C 1016.8 hPa Calm     92% 0.0 mm
23:33 16.8 °C 15.5 °C 1016.5 hPa Calm     92% 0.0 mm
23:38 16.8 °C 15.5 °C 1016.5 hPa Calm     92% 0.0 mm
23:43 16.6 °C 15.3 °C 1016.5 hPa Calm     92% 0.0 mm
23:48 16.5 °C 15.2 °C 1016.5 hPa Calm     92% 0.0 mm
23:53 16.5 °C 15.2 °C 1016.8 hPa Calm     92% 0.0 mm
23:58 16.5 °C 15.2 °C 1016.5 hPa Calm     92% 0.0 mm
Waitara, Taranaki. New Zealand Historic Data
Compliments of Weather Underground - 2 mb